Time;durP1;ratioP1;P1;durP2;ratioP2;P2;SDS_P1;SDS_P2;PMS_P1;PMS_P2;Temp;Humidity;BMP_temperature;BMP_pressure;BME280_temperature;BME280_humidity;BME280_pressure;Samples;Min_cycle;Max_cycle;Signal;HPM_P1;HPM_P2
2023/04/24 00:01:19;;;;;;;7.82;2.90;;;10.40;99.90;;;;;;4992552;28;20462;-87
2023/04/24 00:04:03;;;;;;;8.85;3.25;;;10.30;99.90;;;;;;4991983;28;20514;-87
2023/04/24 00:06:32;;;;;;;8.60;3.65;;;9.20;99.90;;;;;;4993846;28;20050;-87
2023/04/24 00:09:13;;;;;;;8.68;3.65;;;8.90;99.90;;;;;;4992447;28;20122;-88
2023/04/24 00:11:39;;;;;;;9.23;4.13;;;9.10;99.90;;;;;;4994531;28;20047;-88
2023/04/24 00:14:05;;;;;;;9.00;4.50;;;10.10;99.90;;;;;;4997501;28;20058;-87
2023/04/24 00:16:45;;;;;;;9.10;4.10;;;9.10;99.90;;;;;;4993454;28;20050;-88
2023/04/24 00:19:12;;;;;;;9.32;4.53;;;9.80;99.90;;;;;;5010020;28;20053;-87
2023/04/24 00:21:38;;;;;;;10.50;4.85;;;9.90;99.90;;;;;;5018031;28;20046;-86
2023/04/24 00:24:24;;;;;;;12.85;6.15;;;9.10;99.90;;;;;;4995337;28;20049;-87
2023/04/24 00:26:50;;;;;;;9.65;4.25;;;9.10;99.90;;;;;;5012956;28;20553;-87
2023/04/24 00:29:34;;;;;;;10.13;3.88;;;9.10;99.90;;;;;;4998265;28;20084;-88
2023/04/24 00:31:59;;;;;;;9.65;4.25;;;9.00;99.90;;;;;;4994692;28;20050;-88
2023/04/24 00:34:25;;;;;;;8.85;3.20;;;9.70;99.90;;;;;;4995796;28;20053;-87
2023/04/24 00:37:00;;;;;;;8.18;3.25;;;9.00;99.90;;;;;;4996362;28;20145;-87
2023/04/24 00:39:26;;;;;;;7.25;2.80;;;8.90;99.90;;;;;;4996176;28;20041;-87
2023/04/24 00:42:10;;;;;;;7.10;2.60;;;8.90;99.90;;;;;;5000015;28;20061;-87
2023/04/24 00:44:36;;;;;;;7.22;2.63;;;10.40;99.90;;;;;;5001405;28;20049;-87
2023/04/24 00:47:22;;;;;;;8.52;2.75;;;9.80;99.90;;;;;;4998288;28;20050;-88
2023/04/24 00:49:47;;;;;;;7.43;2.72;;;8.90;99.90;;;;;;5017188;28;20045;-87
2023/04/24 00:52:17;;;;;;;7.97;3.30;;;10.10;99.90;;;;;;4999619;28;20551;-87
2023/04/24 00:54:48;;;;;;;7.47;3.00;;;9.10;99.90;;;;;;4998582;28;20553;-88
2023/04/24 00:57:15;;;;;;;7.15;2.78;;;10.30;99.90;;;;;;5016503;28;20045;-88
2023/04/24 01:00:00;;;;;;;8.32;3.10;;;9.30;99.90;;;;;;4999218;28;20046;-88
2023/04/24 01:02:26;;;;;;;8.98;3.90;;;9.20;99.90;;;;;;5016708;28;20523;-87
2023/04/24 01:04:51;;;;;;;8.82;3.33;;;8.80;99.90;;;;;;4999241;28;20042;-88
2023/04/24 01:07:35;;;;;;;10.07;3.80;;;8.80;99.90;;;;;;4998070;28;20042;-87
2023/04/24 01:10:00;;;;;;;10.63;5.05;;;9.40;99.90;;;;;;4999244;28;20128;-88
2023/04/24 01:12:26;;;;;;;8.90;3.90;;;8.80;99.90;;;;;;4999809;28;20509;-88
2023/04/24 01:14:52;;;;;;;10.60;4.10;;;8.80;99.90;;;;;;5035236;28;20153;-88
2023/04/24 01:17:29;;;;;;;9.02;3.60;;;9.50;99.90;;;;;;5034626;28;20041;-89
2023/04/24 01:19:57;;;;;;;9.68;4.07;;;8.80;99.90;;;;;;5001104;28;20128;-88
2023/04/24 01:22:22;;;;;;;9.55;4.35;;;10.10;99.90;;;;;;4998491;28;20046;-88
2023/04/24 01:24:52;;;;;;;9.35;4.03;;;9.20;99.90;;;;;;5016648;28;20042;-89
2023/04/24 01:27:29;;;;;;;12.25;5.50;;;8.70;99.90;;;;;;4996272;28;20129;-89
2023/04/24 01:29:55;;;;;;;12.45;5.25;;;9.80;99.90;;;;;;4997612;28;20371;-89
2023/04/24 01:32:21;;;;;;;11.98;5.18;;;9.90;99.90;;;;;;4998703;28;20038;-88
2023/04/24 01:34:50;;;;;;;9.70;4.25;;;9.50;99.90;;;;;;4998819;28;20046;-89
2023/04/24 01:37:28;;;;;;;9.73;4.30;;;9.30;99.90;;;;;;4997904;28;20393;-88
2023/04/24 01:39:54;;;;;;;9.77;3.92;;;8.70;99.90;;;;;;4999293;28;20042;-89
2023/04/24 01:42:20;;;;;;;10.57;4.80;;;8.70;99.90;;;;;;5020468;28;20053;-88
2023/04/24 01:45:05;;;;;;;10.55;5.15;;;8.70;99.90;;;;;;5019639;28;20034;-88
2023/04/24 01:47:31;;;;;;;13.07;5.68;;;8.70;99.90;;;;;;4998848;28;20497;-89
2023/04/24 01:49:57;;;;;;;12.43;5.90;;;8.70;99.90;;;;;;5020697;28;20126;-90
2023/04/24 01:52:33;;;;;;;13.13;6.25;;;9.30;99.90;;;;;;5000058;28;20058;-88
2023/04/24 01:55:03;;;;;;;15.43;7.10;;;8.70;99.90;;;;;;4998642;28;20089;-88
2023/04/24 01:57:32;;;;;;;15.73;7.00;;;8.70;99.90;;;;;;4999523;28;20053;-89
2023/04/24 02:00:03;;;;;;;14.25;7.10;;;8.70;99.90;;;;;;5005930;28;20046;-89
2023/04/24 02:02:29;;;;;;;13.02;6.60;;;8.70;99.90;;;;;;4998692;28;20081;-89
2023/04/24 02:04:55;;;;;;;13.38;6.15;;;8.70;99.90;;;;;;4997122;28;20042;-89
2023/04/24 02:07:21;;;;;;;12.68;6.50;;;8.70;99.90;;;;;;5029546;28;20033;-89
2023/04/24 02:10:07;;;;;;;15.35;7.05;;;8.70;99.90;;;;;;4978463;28;20078;-90
2023/04/24 02:12:54;;;;;;;13.25;6.88;;;8.70;99.90;;;;;;5001441;28;20050;-89
2023/04/24 02:15:19;;;;;;;12.85;6.05;;;9.30;99.90;;;;;;4998947;28;20085;-89
2023/04/24 02:17:45;;;;;;;12.10;5.93;;;8.80;99.90;;;;;;4997267;28;20077;-89
2023/04/24 02:20:13;;;;;;;14.07;6.25;;;9.60;99.90;;;;;;5015244;28;20577;-89
2023/04/24 02:22:39;;;;;;;14.05;6.03;;;8.80;99.90;;;;;;5035797;23;21206;-88
2023/04/24 02:25:09;;;;;;;12.43;6.20;;;9.90;99.90;;;;;;4997378;28;20081;-89
2023/04/24 02:27:34;;;;;;;12.30;5.72;;;8.80;99.90;;;;;;4998311;28;20096;-89
2023/04/24 02:30:00;;;;;;;12.43;5.95;;;8.80;99.90;;;;;;5047793;23;20043;-89
2023/04/24 02:32:26;;;;;;;11.88;6.28;;;9.30;99.90;;;;;;4995942;28;20050;-89
2023/04/24 02:35:13;;;;;;;11.75;6.05;;;9.40;99.90;;;;;;4995343;28;20038;-89
2023/04/24 02:37:39;;;;;;;11.15;5.75;;;8.90;99.90;;;;;;5061386;23;20058;-88
2023/04/24 02:40:06;;;;;;;12.25;6.07;;;10.30;99.90;;;;;;4996526;28;20037;-88
2023/04/24 02:42:31;;;;;;;11.90;6.07;;;8.90;99.90;;;;;;4997443;28;20104;-88
2023/04/24 02:44:57;;;;;;;11.30;4.88;;;8.90;99.90;;;;;;4996605;28;20041;-88
2023/04/24 02:47:25;;;;;;;11.10;5.38;;;8.90;99.90;;;;;;5014214;28;20042;-89
2023/04/24 02:49:51;;;;;;;11.48;5.00;;;8.90;99.90;;;;;;5014742;28;20045;-88
2023/04/24 02:52:16;;;;;;;10.90;4.47;;;9.60;99.90;;;;;;5014462;28;20048;-88
2023/04/24 02:54:45;;;;;;;10.75;4.95;;;8.90;99.90;;;;;;4996369;28;20081;-89
2023/04/24 02:57:26;;;;;;;;;;;8.90;99.90;;;;;;5014502;28;20057;-89
2023/04/24 03:00:11;;;;;;;10.85;4.65;;;8.70;99.90;;;;;;4996396;28;20221;-89
2023/04/24 03:02:37;;;;;;;10.70;4.70;;;8.90;99.90;;;;;;5014290;28;20093;-89
2023/04/24 03:05:04;;;;;;;10.68;4.90;;;8.80;99.90;;;;;;4996695;28;20042;-88
2023/04/24 03:07:42;;;;;;;;;;;;;;;;;;;;;
2023/04/24 03:10:16;;;;;;;10.15;4.80;;;8.90;99.90;;;;;;4996312;28;20046;-89
2023/04/24 03:12:42;;;;;;;9.65;4.63;;;9.80;99.90;;;;;;5028170;23;20021;-89
2023/04/24 03:15:52;;;;;;;11.48;4.90;;;8.90;99.90;;;;;;5000545;28;20089;-89
2023/04/24 03:18:18;;;;;;;10.05;4.95;;;8.80;99.90;;;;;;4996602;28;20057;-87
2023/04/24 03:20:46;;;;;;;10.70;4.60;;;8.80;99.90;;;;;;5003353;28;20038;-88
2023/04/24 03:23:30;;;;;;;9.70;4.53;;;8.80;99.90;;;;;;5023432;23;20192;-88
2023/04/24 03:25:56;;;;;;;10.73;4.60;;;8.80;99.90;;;;;;5013113;28;20057;-88
2023/04/24 03:28:22;;;;;;;10.93;4.43;;;8.80;99.90;;;;;;4996808;28;20055;-88
2023/04/24 03:33:48;;;;;;;9.20;4.55;;;8.70;99.90;;;;;;4996303;28;20053;-88
2023/04/24 03:36:14;;;;;;;10.63;5.10;;;10.40;99.90;;;;;;5062823;23;20073;-88
2023/04/24 03:38:39;;;;;;;11.20;5.60;;;8.70;99.90;;;;;;4977005;28;20475;-88
2023/04/24 03:41:27;;;;;;;12.37;5.50;;;9.60;99.90;;;;;;4994262;28;20044;-88
2023/04/24 03:43:52;;;;;;;12.13;5.83;;;8.70;99.90;;;;;;4975789;28;20491;-87
2023/04/24 03:46:18;;;;;;;11.53;5.27;;;8.70;99.90;;;;;;4976206;28;20050;-88
2023/04/24 03:49:02;;;;;;;12.45;5.78;;;8.60;99.90;;;;;;4976696;28;20209;-88
2023/04/24 03:51:30;;;;;;;;;;;8.80;99.90;;;;;;4977062;28;20061;-88
2023/04/24 03:53:55;;;;;;;11.23;5.80;;;8.50;99.90;;;;;;4976626;28;19953;-88
2023/04/24 03:56:21;;;;;;;11.23;5.35;;;8.50;99.90;;;;;;4975868;28;20077;-88
2023/04/24 03:58:49;;;;;;;10.57;5.35;;;8.50;99.90;;;;;;4976634;28;20057;-88
2023/04/24 04:01:21;;;;;;;10.65;4.53;;;8.50;99.90;;;;;;4991033;28;20116;-88
2023/04/24 04:03:47;;;;;;;10.50;4.70;;;8.50;99.90;;;;;;4993210;28;20046;-88
2023/04/24 04:06:13;;;;;;;10.35;4.95;;;8.60;99.90;;;;;;4993763;28;20502;-87
2023/04/24 04:08:58;;;;;;;10.25;4.95;;;8.60;99.90;;;;;;4995268;28;20049;-87
2023/04/24 04:11:24;;;;;;;10.45;4.75;;;8.50;99.90;;;;;;4917572;28;20572;-88
2023/04/24 04:14:05;;;;;;;10.32;4.80;;;9.00;99.90;;;;;;4976872;28;20050;-88
2023/04/24 04:16:30;;;;;;;10.50;4.80;;;8.60;99.90;;;;;;4994206;28;20379;-88
2023/04/24 04:19:14;;;;;;;11.57;4.57;;;8.30;99.90;;;;;;4976667;28;20097;-88
2023/04/24 04:22:36;;;;;;;11.02;5.20;;;10.10;99.90;;;;;;4975751;28;20129;-88
2023/04/24 04:25:03;;;;;;;11.98;5.30;;;8.60;99.90;;;;;;4975512;28;20097;-87
2023/04/24 04:27:41;;;;;;;11.70;5.53;;;8.50;99.90;;;;;;4993987;28;20030;-88
2023/04/24 04:30:23;;;;;;;12.20;5.85;;;8.80;99.90;;;;;;4993458;28;20078;-88
2023/04/24 04:32:48;;;;;;;13.23;6.07;;;9.60;99.90;;;;;;4993072;28;20077;-88
2023/04/24 04:35:33;;;;;;;14.10;6.72;;;8.50;99.90;;;;;;4993559;28;20085;-87
2023/04/24 04:37:58;;;;;;;12.25;6.00;;;8.50;99.90;;;;;;4990556;28;20054;-88
2023/04/24 04:40:40;;;;;;;12.80;6.05;;;8.30;99.90;;;;;;4975765;28;20053;-88
2023/04/24 04:43:06;;;;;;;12.95;6.57;;;8.60;99.90;;;;;;4982060;28;20185;-88
2023/04/24 04:45:32;;;;;;;12.55;6.15;;;8.30;99.90;;;;;;4978140;28;20417;-88
2023/04/24 04:48:17;;;;;;;13.05;5.72;;;9.40;99.90;;;;;;4977507;28;20054;-88
2023/04/24 04:50:43;;;;;;;12.45;6.05;;;8.50;99.90;;;;;;4982686;28;20053;-88
2023/04/24 04:53:27;;;;;;;14.07;6.40;;;8.50;99.90;;;;;;4994076;28;20121;-88
2023/04/24 04:56:13;;;;;;;;;;;9.90;99.90;;;;;;4977891;28;20398;-88
2023/04/24 04:58:39;;;;;;;12.65;6.68;;;8.70;99.90;;;;;;4995222;28;19922;-90
2023/04/24 05:01:04;;;;;;;14.45;6.30;;;8.50;99.90;;;;;;4977363;28;20049;-88
2023/04/24 05:03:30;;;;;;;14.05;6.68;;;8.50;99.90;;;;;;4993806;28;20081;-89
2023/04/24 05:05:59;;;;;;;12.98;6.20;;;9.70;99.90;;;;;;4977113;28;20137;-88
2023/04/24 05:08:31;;;;;;;13.93;6.80;;;8.50;99.90;;;;;;5004117;28;20080;-87
2023/04/24 05:11:12;;;;;;;13.25;6.60;;;8.50;99.90;;;;;;4999248;28;20498;-88
2023/04/24 05:13:40;;;;;;;12.25;5.93;;;10.00;99.90;;;;;;4992974;28;20042;-89
2023/04/24 05:16:06;;;;;;;12.70;5.85;;;8.40;99.90;;;;;;4975577;28;20049;-87
2023/04/24 05:18:50;;;;;;;12.30;6.10;;;9.70;99.90;;;;;;4993124;28;20486;-87
2023/04/24 05:21:15;;;;;;;13.20;6.45;;;8.50;99.90;;;;;;4992076;28;20049;-87
2023/04/24 05:23:41;;;;;;;12.18;5.78;;;8.60;99.90;;;;;;4985537;28;20061;-88
2023/04/24 05:26:22;;;;;;;11.98;5.70;;;9.00;99.90;;;;;;4996179;28;20042;-87
2023/04/24 05:28:48;;;;;;;12.57;5.63;;;8.90;99.90;;;;;;4997686;28;20070;-87
2023/04/24 05:33:57;;;;;;;13.50;5.57;;;8.70;99.90;;;;;;4997845;28;20049;-89
2023/04/24 05:36:23;;;;;;;10.80;4.68;;;8.50;99.90;;;;;;4996738;28;20049;-88
2023/04/24 05:39:07;;;;;;;9.55;4.03;;;8.50;99.90;;;;;;4999003;28;20133;-88
2023/04/24 05:41:33;;;;;;;8.43;3.40;;;8.70;99.90;;;;;;5015254;28;20046;-88
2023/04/24 05:43:59;;;;;;;9.43;3.75;;;10.20;99.90;;;;;;4982017;28;20112;-88
2023/04/24 05:46:30;;;;;;;8.93;3.50;;;8.60;99.90;;;;;;4997980;28;20046;-88
2023/04/24 05:49:11;;;;;;;8.98;3.42;;;8.70;99.90;;;;;;5011091;28;20057;-88
2023/04/24 05:51:36;;;;;;;9.18;3.50;;;9.90;99.90;;;;;;5016057;28;20121;-88
2023/04/24 05:54:03;;;;;;;9.52;3.30;;;8.70;99.90;;;;;;5016462;28;20501;-88
2023/04/24 05:56:54;;;;;;;9.40;3.53;;;8.70;99.90;;;;;;4996318;28;20069;-88
2023/04/24 05:59:19;;;;;;;9.43;3.95;;;9.70;99.90;;;;;;4998147;28;20069;-88
2023/04/24 06:01:45;;;;;;;9.50;3.92;;;8.80;99.90;;;;;;5016603;28;20475;-88
2023/04/24 06:04:13;;;;;;;12.20;4.45;;;8.80;99.90;;;;;;4996985;28;20056;-88
2023/04/24 06:06:57;;;;;;;11.02;3.60;;;8.80;99.90;;;;;;4972502;28;20076;-89
2023/04/24 06:09:22;;;;;;;8.85;3.38;;;10.10;99.90;;;;;;5016053;28;20069;-88
2023/04/24 06:11:59;;;;;;;;;;;;;;;;;;;;;
2023/04/24 06:14:55;;;;;;;8.43;2.80;;;8.70;99.90;;;;;;4938414;29;20130;-88
2023/04/24 06:17:32;;;;;;;10.20;4.75;;;9.50;99.90;;;;;;4925526;28;20186;-88
2023/04/24 06:20:05;;;;;;;10.05;3.85;;;9.30;99.90;;;;;;5001796;28;20046;-91
2023/04/24 06:22:30;;;;;;;11.20;4.95;;;9.20;99.90;;;;;;4999460;28;20132;-82
2023/04/24 06:24:56;;;;;;;15.27;7.88;;;9.90;99.90;;;;;;4996345;28;20494;-82
2023/04/24 06:27:22;;;;;;;24.23;14.90;;;8.60;99.90;;;;;;4997776;28;20129;-85
2023/04/24 06:29:54;;;;;;;7.75;3.00;;;8.60;99.90;;;;;;4997778;28;20034;-84
2023/04/24 06:32:23;;;;;;;8.75;2.70;;;8.60;99.90;;;;;;4996939;28;20041;-83
2023/04/24 06:34:49;;;;;;;9.85;3.28;;;8.60;99.90;;;;;;5014029;28;20050;-83
2023/04/24 06:37:16;;;;;;;9.63;3.40;;;8.60;99.90;;;;;;5013309;28;20065;-84
2023/04/24 06:39:41;;;;;;;9.30;2.78;;;8.60;99.90;;;;;;5051883;23;20137;-83
2023/04/24 06:42:09;;;;;;;12.75;5.63;;;8.60;99.90;;;;;;4996949;28;20474;-84
2023/04/24 06:44:40;;;;;;;9.18;4.68;;;8.50;99.90;;;;;;4996829;28;20556;-83
2023/04/24 06:47:09;;;;;;;10.80;3.10;;;9.20;99.90;;;;;;5014691;28;20118;-85
2023/04/24 06:49:39;;;;;;;12.45;5.50;;;8.60;99.90;;;;;;4996207;28;20148;-82
2023/04/24 06:52:05;;;;;;;8.88;3.35;;;8.50;99.90;;;;;;4996247;28;20046;-81
2023/04/24 06:54:31;;;;;;;10.73;3.63;;;8.50;99.90;;;;;;5014153;28;20041;-85
2023/04/24 06:56:57;;;;;;;10.48;3.58;;;9.10;99.90;;;;;;4996541;28;20046;-84
2023/04/24 06:59:26;;;;;;;9.52;3.30;;;8.40;99.90;;;;;;5013966;28;20053;-83
2023/04/24 07:01:52;;;;;;;10.80;3.45;;;8.40;99.90;;;;;;4996701;28;20073;-83
2023/04/24 07:04:18;;;;;;;10.63;3.60;;;8.40;99.90;;;;;;4996399;28;20074;-83
2023/04/24 07:06:45;;;;;;;12.57;5.28;;;8.40;99.90;;;;;;4995978;28;20044;-82
2023/04/24 07:09:13;;;;;;;11.38;5.22;;;9.30;99.90;;;;;;4996589;28;20137;-83
2023/04/24 07:11:40;;;;;;;10.85;4.38;;;8.40;99.90;;;;;;5013702;28;20397;-83
2023/04/24 07:14:06;;;;;;;18.13;13.20;;;8.40;99.90;;;;;;5013031;28;20473;-84
2023/04/24 07:16:32;;;;;;;20.30;15.98;;;8.40;99.90;;;;;;5013785;28;20042;-82
2023/04/24 07:18:58;;;;;;;22.75;18.58;;;8.40;99.90;;;;;;5013532;28;20486;-82
2023/04/24 07:21:23;;;;;;;26.17;21.58;;;9.00;99.90;;;;;;5013278;28;20038;-82
2023/04/24 07:23:49;;;;;;;90.50;55.67;;;8.40;99.90;;;;;;4996690;28;20512;-83
2023/04/24 07:26:15;;;;;;;14.80;6.57;;;8.40;99.90;;;;;;4995881;28;20052;-83
2023/04/24 07:28:41;;;;;;;15.65;8.07;;;9.10;99.90;;;;;;4995545;28;20057;-83
2023/04/24 07:31:08;;;;;;;10.13;4.28;;;8.40;99.90;;;;;;4995488;28;20401;-83
2023/04/24 07:33:33;;;;;;;24.45;17.23;;;8.30;99.90;;;;;;5013879;28;20057;-84
2023/04/24 07:36:00;;;;;;;9.38;3.47;;;8.40;99.90;;;;;;5012858;28;20042;-83
2023/04/24 07:38:25;;;;;;;16.65;9.98;;;8.40;99.90;;;;;;4996579;28;20133;-83
2023/04/24 07:40:51;;;;;;;11.85;4.72;;;9.70;99.90;;;;;;5013473;28;20090;-83
2023/04/24 07:43:18;;;;;;;8.43;3.20;;;8.50;99.90;;;;;;5002996;28;20104;-82
2023/04/24 07:45:43;;;;;;;10.65;5.28;;;8.60;99.90;;;;;;5013676;28;20034;-81
2023/04/24 07:48:10;;;;;;;11.95;8.60;;;8.60;99.90;;;;;;4994123;28;20133;-81
2023/04/24 07:50:36;;;;;;;18.17;15.68;;;8.70;99.90;;;;;;4998092;28;20465;-80
2023/04/24 07:53:02;;;;;;;14.43;9.10;;;8.80;99.90;;;;;;4999700;28;20086;-81
2023/04/24 07:55:28;;;;;;;17.63;15.20;;;8.90;99.90;;;;;;4991128;28;20406;-81
2023/04/24 07:57:53;;;;;;;32.47;29.25;;;9.00;99.90;;;;;;4991868;28;20042;-82
2023/04/24 08:00:20;;;;;;;13.73;10.63;;;9.00;99.90;;;;;;4991076;28;20064;-82
2023/04/24 08:02:46;;;;;;;13.43;7.38;;;9.10;99.90;;;;;;4992675;28;20095;-81
2023/04/24 08:05:11;;;;;;;9.73;3.60;;;9.10;99.90;;;;;;4994336;28;20042;-81
2023/04/24 08:07:38;;;;;;;11.57;6.03;;;9.10;99.90;;;;;;5012464;28;20057;-81
2023/04/24 08:10:04;;;;;;;8.95;3.50;;;9.20;99.90;;;;;;5012462;28;20065;-80
2023/04/24 08:12:30;;;;;;;10.55;3.40;;;9.30;99.90;;;;;;5020276;28;20402;-81
2023/04/24 08:14:56;;;;;;;10.88;5.85;;;9.40;99.90;;;;;;4980221;28;20515;-81
2023/04/24 08:17:21;;;;;;;10.35;4.57;;;9.30;99.90;;;;;;5011851;28;20049;-80
2023/04/24 08:19:48;;;;;;;10.65;5.57;;;9.30;99.90;;;;;;5012357;28;20380;-80
2023/04/24 08:22:15;;;;;;;10.43;3.63;;;9.30;99.90;;;;;;5012348;28;20049;-80
2023/04/24 08:24:40;;;;;;;10.93;3.60;;;9.20;99.90;;;;;;4993904;28;20049;-80
2023/04/24 08:27:06;;;;;;;10.65;3.30;;;9.20;99.90;;;;;;5012445;28;20372;-81
2023/04/24 08:29:32;;;;;;;10.43;4.00;;;9.20;99.90;;;;;;5012209;28;20513;-80
2023/04/24 08:31:57;;;;;;;10.93;4.50;;;9.20;99.90;;;;;;4993818;28;20482;-80
2023/04/24 08:34:23;;;;;;;8.98;3.65;;;9.30;99.90;;;;;;4994906;28;20119;-80
2023/04/24 08:36:49;;;;;;;12.38;3.83;;;9.30;99.90;;;;;;4995330;28;20124;-83
2023/04/24 08:39:15;;;;;;;10.73;4.07;;;10.40;99.90;;;;;;4993734;28;20500;-81
2023/04/24 08:41:42;;;;;;;11.38;4.03;;;9.30;99.90;;;;;;5011953;28;20080;-80
2023/04/24 08:44:09;;;;;;;9.15;3.53;;;9.30;99.90;;;;;;5011858;28;20121;-81
2023/04/24 08:46:36;;;;;;;9.77;3.40;;;9.30;99.90;;;;;;5011505;28;20049;-80
2023/04/24 08:49:03;;;;;;;8.37;3.10;;;9.30;99.90;;;;;;5011836;28;20502;-80
2023/04/24 08:51:30;;;;;;;9.07;3.17;;;9.20;99.90;;;;;;4994008;28;20875;-81
2023/04/24 08:53:57;;;;;;;9.30;3.05;;;9.20;99.90;;;;;;4994339;28;20038;-82
2023/04/24 08:56:24;;;;;;;10.05;3.05;;;9.20;99.90;;;;;;4995207;28;20053;-83
2023/04/24 08:58:51;;;;;;;9.23;3.38;;;9.20;99.90;;;;;;5011745;28;20042;-82
2023/04/24 09:01:20;;;;;;;8.20;3.03;;;9.20;99.90;;;;;;5014482;28;20069;-81
2023/04/24 09:03:49;;;;;;;8.75;3.13;;;9.20;99.90;;;;;;4998288;28;20191;-81
2023/04/24 09:06:17;;;;;;;14.43;10.93;;;9.10;99.90;;;;;;5015095;28;20123;-81
2023/04/24 09:08:45;;;;;;;11.80;3.50;;;9.10;99.90;;;;;;5016754;28;20087;-81
2023/04/24 09:11:11;;;;;;;12.57;4.25;;;9.00;99.90;;;;;;5019314;28;20041;-81
2023/04/24 09:13:41;;;;;;;12.38;4.60;;;9.50;99.90;;;;;;5017647;28;20126;-81
2023/04/24 09:16:06;;;;;;;11.95;4.97;;;9.50;99.90;;;;;;5016154;28;20125;-81
2023/04/24 09:18:32;;;;;;;14.70;5.55;;;9.00;99.90;;;;;;5017761;28;20147;-82
2023/04/24 09:21:06;;;;;;;17.05;6.22;;;9.70;99.90;;;;;;5015002;28;20085;-81
2023/04/24 09:23:32;;;;;;;17.02;6.60;;;8.90;99.90;;;;;;4997967;28;20048;-82
2023/04/24 09:26:04;;;;;;;19.40;7.20;;;10.00;99.90;;;;;;5015498;28;20572;-80
2023/04/24 09:28:37;;;;;;;16.90;7.40;;;9.00;99.90;;;;;;4997620;28;20107;-81
2023/04/24 09:31:09;;;;;;;20.67;7.80;;;9.00;99.90;;;;;;4989372;28;20117;-81
2023/04/24 09:33:38;;;;;;;19.45;7.85;;;9.00;99.90;;;;;;5009445;28;20042;-81
2023/04/24 09:36:09;;;;;;;19.92;8.85;;;9.00;99.90;;;;;;4998136;28;20054;-80
2023/04/24 09:38:38;;;;;;;19.00;8.45;;;8.90;99.90;;;;;;5014822;28;20478;-81
2023/04/24 09:41:13;;;;;;;18.90;8.00;;;8.90;99.90;;;;;;4995735;28;20053;-81
2023/04/24 09:43:38;;;;;;;16.02;8.35;;;9.00;99.90;;;;;;5012097;28;20081;-82
2023/04/24 09:46:07;;;;;;;16.40;8.20;;;8.80;99.90;;;;;;4996617;28;20152;-82
2023/04/24 09:48:34;;;;;;;19.75;9.65;;;8.80;99.90;;;;;;5013638;28;20069;-81
2023/04/24 09:51:03;;;;;;;21.65;10.02;;;9.80;99.90;;;;;;5013389;28;20042;-82
2023/04/24 09:53:29;;;;;;;21.40;10.43;;;8.60;99.90;;;;;;4981956;28;20041;-84
2023/04/24 09:55:56;;;;;;;24.17;12.02;;;8.60;99.90;;;;;;5014089;28;20490;-84
2023/04/24 09:58:26;;;;;;;21.92;11.68;;;8.50;99.90;;;;;;4997551;28;20038;-82
2023/04/24 10:00:55;;;;;;;23.23;12.07;;;8.50;99.90;;;;;;4997524;28;20409;-82
2023/04/24 10:03:23;;;;;;;24.85;12.73;;;9.50;99.90;;;;;;4980072;28;20100;-83
2023/04/24 10:05:52;;;;;;;26.77;12.77;;;8.40;99.90;;;;;;4997515;28;20498;-82
2023/04/24 10:08:18;;;;;;;22.75;11.82;;;8.40;99.90;;;;;;5015690;28;20056;-84
2023/04/24 10:10:45;;;;;;;25.35;11.65;;;8.40;99.90;;;;;;4997065;28;20042;-83
2023/04/24 10:13:14;;;;;;;24.42;11.40;;;8.40;99.90;;;;;;4997984;28;20502;-82
2023/04/24 10:15:41;;;;;;;23.35;11.80;;;8.40;99.90;;;;;;5014146;28;20061;-83
2023/04/24 10:18:08;;;;;;;25.95;12.60;;;8.40;99.90;;;;;;4997207;28;20084;-84
2023/04/24 10:20:36;;;;;;;21.45;11.52;;;8.40;99.90;;;;;;4997359;28;20052;-85
2023/04/24 10:23:03;;;;;;;22.08;12.02;;;8.40;99.90;;;;;;4996290;28;20046;-84
2023/04/24 10:25:34;;;;;;;25.35;12.48;;;8.50;99.90;;;;;;5014441;28;20077;-84
2023/04/24 10:28:05;;;;;;;26.05;12.05;;;8.60;99.90;;;;;;4996302;28;20104;-85
2023/04/24 10:30:38;;;;;;;26.60;13.13;;;8.30;99.90;;;;;;5012631;28;20049;-82
2023/04/24 10:33:07;;;;;;;22.25;11.10;;;9.70;99.90;;;;;;4996102;28;20042;-82
2023/04/24 10:35:37;;;;;;;22.73;10.15;;;8.40;99.90;;;;;;4995852;28;20034;-82
2023/04/24 10:38:07;;;;;;;19.90;9.90;;;8.40;99.90;;;;;;4996049;28;20513;-81
2023/04/24 10:40:35;;;;;;;18.10;9.68;;;8.40;99.90;;;;;;5000205;28;20056;-81
2023/04/24 10:43:10;;;;;;;22.63;10.93;;;8.40;99.90;;;;;;4996079;28;20053;-82
2023/04/24 10:45:36;;;;;;;24.40;14.82;;;8.40;99.90;;;;;;5012196;28;20048;-81
2023/04/24 10:48:13;;;;;;;21.88;10.13;;;8.40;99.90;;;;;;4999377;28;20045;-81
2023/04/24 10:50:52;;;;;;;22.27;10.15;;;8.50;99.90;;;;;;4996563;28;20077;-81
2023/04/24 10:53:20;;;;;;;29.58;15.60;;;8.60;99.90;;;;;;4991302;28;20416;-81
2023/04/24 10:56:07;;;;;;;20.77;9.35;;;8.80;99.90;;;;;;4995615;28;20675;-82
2023/04/24 10:58:51;;;;;;;19.27;8.82;;;8.70;99.90;;;;;;5012067;28;20501;-82
2023/04/24 11:01:32;;;;;;;21.98;11.38;;;8.70;99.90;;;;;;4993111;28;20045;-82
2023/04/24 11:04:03;;;;;;;21.70;8.75;;;8.70;99.90;;;;;;4995950;28;20053;-82
2023/04/24 11:06:34;;;;;;;15.95;7.70;;;9.20;99.90;;;;;;5012459;28;20108;-82
2023/04/24 11:09:07;;;;;;;17.10;8.30;;;8.60;99.90;;;;;;5013374;28;20394;-83
2023/04/24 11:11:37;;;;;;;16.63;8.02;;;8.50;99.90;;;;;;5024779;28;20053;-83
2023/04/24 11:14:09;;;;;;;17.23;6.35;;;8.50;99.90;;;;;;5011437;28;20050;-82
2023/04/24 11:16:56;;;;;;;19.60;9.93;;;8.50;99.90;;;;;;5013709;28;20068;-82
2023/04/24 11:19:24;;;;;;;17.38;7.32;;;8.40;99.90;;;;;;4995020;28;20045;-83
2023/04/24 11:22:01;;;;;;;16.52;4.90;;;8.40;99.90;;;;;;4995277;28;20530;-83
2023/04/24 11:24:35;;;;;;;16.43;5.93;;;8.30;99.90;;;;;;5012814;28;20079;-83
2023/04/24 11:27:04;;;;;;;15.77;6.03;;;8.30;99.90;;;;;;4994838;28;20038;-83
2023/04/24 11:29:44;;;;;;;15.83;5.30;;;8.30;99.90;;;;;;5012066;28;20075;-83
2023/04/24 11:32:18;;;;;;;31.60;19.50;;;8.40;99.90;;;;;;5012579;28;20046;-82
2023/04/24 11:34:48;;;;;;;31.90;18.08;;;8.40;99.90;;;;;;5011764;28;20042;-83
2023/04/24 11:37:15;;;;;;;14.17;5.33;;;8.60;99.90;;;;;;4995313;28;20577;-83
2023/04/24 11:39:40;;;;;;;14.03;5.07;;;8.70;99.90;;;;;;5012998;28;20069;-82
2023/04/24 11:42:08;;;;;;;21.33;12.35;;;9.90;99.90;;;;;;5012337;28;20059;-83
2023/04/24 11:44:36;;;;;;;13.80;4.22;;;8.80;99.90;;;;;;4994625;28;20041;-83
2023/04/24 11:47:06;;;;;;;14.32;5.53;;;8.70;99.90;;;;;;4991779;28;20481;-84
2023/04/24 11:49:32;;;;;;;10.93;3.40;;;9.00;99.90;;;;;;4995764;28;20076;-84
2023/04/24 11:52:00;;;;;;;13.40;4.47;;;8.50;99.90;;;;;;4994448;28;20347;-84
2023/04/24 11:54:26;;;;;;;14.10;5.43;;;8.50;99.90;;;;;;5011868;28;20044;-84
2023/04/24 11:56:52;;;;;;;15.45;7.38;;;8.40;99.90;;;;;;5013441;28;20120;-84
2023/04/24 11:59:18;;;;;;;12.60;3.50;;;8.30;99.90;;;;;;4995143;28;20034;-84
2023/04/24 12:01:45;;;;;;;11.80;3.75;;;9.60;99.90;;;;;;4994369;28;20053;-85
2023/04/24 12:04:11;;;;;;;12.75;3.30;;;8.40;99.90;;;;;;5012635;28;20038;-84
2023/04/24 12:06:37;;;;;;;13.73;3.47;;;8.50;99.90;;;;;;4996823;28;20127;-85
2023/04/24 12:09:02;;;;;;;10.98;3.33;;;8.50;99.90;;;;;;4996686;28;20060;-85
2023/04/24 12:11:28;;;;;;;13.13;3.50;;;8.60;99.90;;;;;;4997005;28;20058;-84
2023/04/24 12:13:54;;;;;;;11.20;3.53;;;10.00;99.90;;;;;;5005994;28;20038;-84
2023/04/24 12:16:19;;;;;;;19.48;6.55;;;8.80;99.90;;;;;;5010488;28;20057;-84
2023/04/24 12:18:45;;;;;;;13.43;5.70;;;9.20;99.90;;;;;;5000058;28;20111;-85
2023/04/24 12:21:20;;;;;;;13.23;3.75;;;9.10;99.90;;;;;;4995394;28;20057;-83
2023/04/24 12:23:46;;;;;;;12.57;3.72;;;9.20;99.90;;;;;;4995011;28;20111;-87
2023/04/24 12:26:16;;;;;;;10.43;2.80;;;10.20;99.90;;;;;;5013558;28;20061;-89
2023/04/24 12:28:42;;;;;;;13.43;3.35;;;9.20;99.90;;;;;;4996521;28;20080;-90
2023/04/24 12:31:08;;;;;;;14.00;3.53;;;9.50;99.90;;;;;;5012294;28;20050;-89
2023/04/24 12:33:35;;;;;;;13.68;3.67;;;8.90;99.90;;;;;;4996958;28;20399;-88
2023/04/24 12:36:01;;;;;;;13.20;3.30;;;8.90;99.90;;;;;;5019013;28;20509;-87
2023/04/24 12:38:29;;;;;;;11.18;3.45;;;8.90;99.90;;;;;;5017497;28;20038;-87
2023/04/24 12:41:06;;;;;;;10.80;2.97;;;8.80;99.90;;;;;;5017123;28;20520;-88
2023/04/24 12:43:31;;;;;;;15.18;8.98;;;8.80;99.90;;;;;;4999313;28;20133;-88
2023/04/24 12:45:58;;;;;;;11.27;4.32;;;9.80;99.90;;;;;;4999820;28;20136;-88
2023/04/24 12:48:25;;;;;;;8.88;3.10;;;9.30;99.90;;;;;;5018445;28;20037;-88
2023/04/24 12:50:50;;;;;;;15.32;9.50;;;8.60;99.90;;;;;;4999650;28;20096;-88
2023/04/24 12:53:16;;;;;;;12.75;3.00;;;8.60;99.90;;;;;;5000272;28;20045;-86
2023/04/24 12:55:42;;;;;;;11.23;5.03;;;8.60;99.90;;;;;;5017736;28;20561;-89
2023/04/24 12:58:08;;;;;;;10.77;5.32;;;8.60;99.90;;;;;;5019416;28;20045;-87
2023/04/24 13:00:33;;;;;;;7.07;2.25;;;8.60;99.90;;;;;;5000000;28;20037;-88
2023/04/24 13:02:59;;;;;;;9.50;5.15;;;8.70;99.90;;;;;;5017353;28;20104;-89
2023/04/24 13:05:25;;;;;;;11.55;5.22;;;8.70;99.90;;;;;;5000663;28;20094;-89
2023/04/24 13:07:50;;;;;;;10.75;3.60;;;8.70;99.90;;;;;;5000517;28;20049;-89
2023/04/24 13:10:16;;;;;;;9.60;3.22;;;8.60;99.90;;;;;;5016824;28;20042;-90